sensor_id;sensor_type;location;lat;lon;timestamp;P1;durP1;ratioP1;P2;durP2;ratioP2
37677;SDS011;23517;50.390;8.616;2022-10-16T00:01:29;5.25;;;1.15;;
37677;SDS011;23517;50.390;8.616;2022-10-16T00:03:58;3.30;;;1.27;;
37677;SDS011;23517;50.390;8.616;2022-10-16T00:06:27;4.65;;;1.75;;
37677;SDS011;23517;50.390;8.616;2022-10-16T00:08:55;3.97;;;1.35;;
37677;SDS011;23517;50.390;8.616;2022-10-16T00:11:26;8.77;;;1.70;;
37677;SDS011;23517;50.390;8.616;2022-10-16T00:14:03;7.53;;;1.40;;
37677;SDS011;23517;50.390;8.616;2022-10-16T00:16:34;7.78;;;1.95;;
37677;SDS011;23517;50.390;8.616;2022-10-16T00:19:01;5.97;;;1.52;;
37677;SDS011;23517;50.390;8.616;2022-10-16T00:21:28;10.48;;;1.33;;
37677;SDS011;23517;50.390;8.616;2022-10-16T00:24:02;11.63;;;1.38;;
37677;SDS011;23517;50.390;8.616;2022-10-16T00:26:33;2.88;;;0.80;;
37677;SDS011;23517;50.390;8.616;2022-10-16T00:29:01;1.25;;;0.40;;
37677;SDS011;23517;50.390;8.616;2022-10-16T00:31:28;4.78;;;0.95;;
37677;SDS011;23517;50.390;8.616;2022-10-16T00:33:56;4.15;;;0.70;;
37677;SDS011;23517;50.390;8.616;2022-10-16T00:36:23;5.35;;;0.60;;
37677;SDS011;23517;50.390;8.616;2022-10-16T00:38:55;1.17;;;0.68;;
37677;SDS011;23517;50.390;8.616;2022-10-16T00:41:26;8.65;;;0.80;;
37677;SDS011;23517;50.390;8.616;2022-10-16T00:43:57;4.13;;;0.80;;
37677;SDS011;23517;50.390;8.616;2022-10-16T00:46:32;12.18;;;1.02;;
37677;SDS011;23517;50.390;8.616;2022-10-16T00:49:05;4.15;;;1.42;;
37677;SDS011;23517;50.390;8.616;2022-10-16T00:51:40;6.03;;;1.60;;
37677;SDS011;23517;50.390;8.616;2022-10-16T00:54:12;6.43;;;1.60;;
37677;SDS011;23517;50.390;8.616;2022-10-16T00:56:44;5.30;;;1.63;;
37677;SDS011;23517;50.390;8.616;2022-10-16T00:59:32;2.40;;;0.98;;
37677;SDS011;23517;50.390;8.616;2022-10-16T01:02:04;2.45;;;0.80;;
37677;SDS011;23517;50.390;8.616;2022-10-16T01:04:38;5.70;;;1.23;;
37677;SDS011;23517;50.390;8.616;2022-10-16T01:12:38;6.45;;;0.80;;
37677;SDS011;23517;50.390;8.616;2022-10-16T01:15:31;3.20;;;0.80;;
37677;SDS011;23517;50.390;8.616;2022-10-16T01:18:34;6.07;;;0.70;;
37677;SDS011;23517;50.390;8.616;2022-10-16T01:21:25;1.15;;;0.70;;
37677;SDS011;23517;50.390;8.616;2022-10-16T01:27:01;2.85;;;0.90;;
37677;SDS011;23517;50.390;8.616;2022-10-16T01:32:33;6.60;;;0.90;;
37677;SDS011;23517;50.390;8.616;2022-10-16T01:35:38;2.95;;;0.75;;
37677;SDS011;23517;50.390;8.616;2022-10-16T01:38:15;4.68;;;0.95;;
37677;SDS011;23517;50.390;8.616;2022-10-16T01:40:47;5.25;;;0.80;;
37677;SDS011;23517;50.390;8.616;2022-10-16T01:43:27;11.05;;;1.10;;
37677;SDS011;23517;50.390;8.616;2022-10-16T01:46:00;5.68;;;1.20;;
37677;SDS011;23517;50.390;8.616;2022-10-16T01:48:28;9.93;;;1.00;;
37677;SDS011;23517;50.390;8.616;2022-10-16T01:53:53;2.42;;;0.80;;
37677;SDS011;23517;50.390;8.616;2022-10-16T01:56:21;6.18;;;1.00;;
37677;SDS011;23517;50.390;8.616;2022-10-16T01:58:57;8.90;;;1.02;;
37677;SDS011;23517;50.390;8.616;2022-10-16T02:01:30;6.25;;;0.95;;
37677;SDS011;23517;50.390;8.616;2022-10-16T02:04:00;6.63;;;1.10;;
37677;SDS011;23517;50.390;8.616;2022-10-16T02:06:34;4.97;;;1.10;;
37677;SDS011;23517;50.390;8.616;2022-10-16T02:09:01;9.68;;;1.52;;
37677;SDS011;23517;50.390;8.616;2022-10-16T02:11:28;3.33;;;0.98;;
37677;SDS011;23517;50.390;8.616;2022-10-16T02:13:58;4.75;;;1.05;;
37677;SDS011;23517;50.390;8.616;2022-10-16T02:16:40;6.07;;;1.00;;
37677;SDS011;23517;50.390;8.616;2022-10-16T02:19:14;6.05;;;1.08;;
37677;SDS011;23517;50.390;8.616;2022-10-16T02:21:44;5.05;;;1.10;;
37677;SDS011;23517;50.390;8.616;2022-10-16T02:24:24;7.60;;;1.10;;
37677;SDS011;23517;50.390;8.616;2022-10-16T02:27:33;5.00;;;1.42;;
37677;SDS011;23517;50.390;8.616;2022-10-16T02:30:30;7.43;;;1.00;;
37677;SDS011;23517;50.390;8.616;2022-10-16T02:33:11;5.90;;;1.20;;
37677;SDS011;23517;50.390;8.616;2022-10-16T02:35:40;4.72;;;0.98;;
37677;SDS011;23517;50.390;8.616;2022-10-16T02:38:08;7.30;;;1.00;;
37677;SDS011;23517;50.390;8.616;2022-10-16T02:40:41;4.63;;;1.08;;
37677;SDS011;23517;50.390;8.616;2022-10-16T02:43:08;8.95;;;1.52;;
37677;SDS011;23517;50.390;8.616;2022-10-16T02:45:36;4.20;;;1.30;;
37677;SDS011;23517;50.390;8.616;2022-10-16T02:48:03;7.47;;;0.93;;
37677;SDS011;23517;50.390;8.616;2022-10-16T02:50:30;3.28;;;1.02;;
37677;SDS011;23517;50.390;8.616;2022-10-16T02:52:57;4.60;;;0.70;;
37677;SDS011;23517;50.390;8.616;2022-10-16T02:55:24;13.43;;;1.48;;
37677;SDS011;23517;50.390;8.616;2022-10-16T02:57:50;3.25;;;0.93;;
37677;SDS011;23517;50.390;8.616;2022-10-16T03:00:18;4.95;;;1.17;;
37677;SDS011;23517;50.390;8.616;2022-10-16T03:02:45;4.97;;;0.90;;
37677;SDS011;23517;50.390;8.616;2022-10-16T03:05:12;10.02;;;1.35;;
37677;SDS011;23517;50.390;8.616;2022-10-16T03:07:40;2.60;;;0.90;;
37677;SDS011;23517;50.390;8.616;2022-10-16T03:10:07;4.80;;;1.13;;
37677;SDS011;23517;50.390;8.616;2022-10-16T03:12:34;3.70;;;0.80;;
37677;SDS011;23517;50.390;8.616;2022-10-16T03:15:01;2.53;;;0.80;;
37677;SDS011;23517;50.390;8.616;2022-10-16T03:17:28;3.55;;;0.90;;
37677;SDS011;23517;50.390;8.616;2022-10-16T03:19:55;4.47;;;0.90;;
37677;SDS011;23517;50.390;8.616;2022-10-16T03:22:21;3.42;;;1.65;;
37677;SDS011;23517;50.390;8.616;2022-10-16T03:24:48;10.07;;;1.30;;
37677;SDS011;23517;50.390;8.616;2022-10-16T03:27:14;3.95;;;1.10;;
37677;SDS011;23517;50.390;8.616;2022-10-16T03:29:41;4.22;;;0.90;;
37677;SDS011;23517;50.390;8.616;2022-10-16T03:32:08;3.97;;;1.25;;
37677;SDS011;23517;50.390;8.616;2022-10-16T03:34:34;5.03;;;1.20;;
37677;SDS011;23517;50.390;8.616;2022-10-16T03:37:01;3.63;;;0.90;;
37677;SDS011;23517;50.390;8.616;2022-10-16T03:39:28;6.18;;;1.20;;
37677;SDS011;23517;50.390;8.616;2022-10-16T03:41:55;6.95;;;1.25;;
37677;SDS011;23517;50.390;8.616;2022-10-16T03:44:21;6.20;;;1.40;;
37677;SDS011;23517;50.390;8.616;2022-10-16T03:46:48;2.53;;;0.90;;
37677;SDS011;23517;50.390;8.616;2022-10-16T03:49:14;4.72;;;1.10;;
37677;SDS011;23517;50.390;8.616;2022-10-16T03:51:41;6.45;;;1.20;;
37677;SDS011;23517;50.390;8.616;2022-10-16T03:54:09;7.65;;;1.10;;
37677;SDS011;23517;50.390;8.616;2022-10-16T03:56:36;3.45;;;1.10;;
37677;SDS011;23517;50.390;8.616;2022-10-16T03:59:03;0.80;;;0.80;;
37677;SDS011;23517;50.390;8.616;2022-10-16T04:01:29;1.35;;;0.90;;
37677;SDS011;23517;50.390;8.616;2022-10-16T04:03:56;3.50;;;0.82;;
37677;SDS011;23517;50.390;8.616;2022-10-16T04:06:23;3.53;;;0.98;;
37677;SDS011;23517;50.390;8.616;2022-10-16T04:08:49;1.45;;;0.88;;
37677;SDS011;23517;50.390;8.616;2022-10-16T04:11:16;5.05;;;0.93;;
37677;SDS011;23517;50.390;8.616;2022-10-16T04:13:42;0.93;;;0.90;;
37677;SDS011;23517;50.390;8.616;2022-10-16T04:16:09;0.98;;;0.73;;
37677;SDS011;23517;50.390;8.616;2022-10-16T04:18:36;0.85;;;0.65;;
37677;SDS011;23517;50.390;8.616;2022-10-16T04:21:03;2.67;;;0.70;;
37677;SDS011;23517;50.390;8.616;2022-10-16T04:23:31;2.22;;;1.05;;
37677;SDS011;23517;50.390;8.616;2022-10-16T04:25:59;3.42;;;0.82;;
37677;SDS011;23517;50.390;8.616;2022-10-16T04:28:26;2.88;;;0.60;;
37677;SDS011;23517;50.390;8.616;2022-10-16T04:30:53;2.90;;;0.93;;
37677;SDS011;23517;50.390;8.616;2022-10-16T04:33:20;0.80;;;0.80;;
37677;SDS011;23517;50.390;8.616;2022-10-16T04:35:47;1.75;;;0.60;;
37677;SDS011;23517;50.390;8.616;2022-10-16T04:38:13;3.15;;;0.90;;
37677;SDS011;23517;50.390;8.616;2022-10-16T04:40:41;1.88;;;0.70;;
37677;SDS011;23517;50.390;8.616;2022-10-16T04:43:09;2.17;;;0.68;;
37677;SDS011;23517;50.390;8.616;2022-10-16T04:45:36;2.85;;;0.80;;
37677;SDS011;23517;50.390;8.616;2022-10-16T04:48:03;3.33;;;1.00;;
37677;SDS011;23517;50.390;8.616;2022-10-16T04:50:29;1.45;;;0.60;;
37677;SDS011;23517;50.390;8.616;2022-10-16T04:52:56;2.38;;;0.82;;
37677;SDS011;23517;50.390;8.616;2022-10-16T04:55:23;3.72;;;0.82;;
37677;SDS011;23517;50.390;8.616;2022-10-16T04:57:49;0.77;;;0.57;;
37677;SDS011;23517;50.390;8.616;2022-10-16T05:00:16;3.67;;;0.70;;
37677;SDS011;23517;50.390;8.616;2022-10-16T05:02:43;3.75;;;1.02;;
37677;SDS011;23517;50.390;8.616;2022-10-16T05:05:09;1.90;;;0.90;;
37677;SDS011;23517;50.390;8.616;2022-10-16T05:07:36;2.35;;;0.98;;
37677;SDS011;23517;50.390;8.616;2022-10-16T05:10:03;4.53;;;1.00;;
37677;SDS011;23517;50.390;8.616;2022-10-16T05:12:30;2.15;;;0.80;;
37677;SDS011;23517;50.390;8.616;2022-10-16T05:14:57;4.50;;;0.80;;
37677;SDS011;23517;50.390;8.616;2022-10-16T05:17:25;1.35;;;0.90;;
37677;SDS011;23517;50.390;8.616;2022-10-16T05:19:53;2.90;;;1.05;;
37677;SDS011;23517;50.390;8.616;2022-10-16T05:22:20;4.70;;;0.80;;
37677;SDS011;23517;50.390;8.616;2022-10-16T05:24:46;2.25;;;0.80;;
37677;SDS011;23517;50.390;8.616;2022-10-16T05:27:13;3.15;;;0.90;;
37677;SDS011;23517;50.390;8.616;2022-10-16T05:29:45;2.72;;;0.80;;
37677;SDS011;23517;50.390;8.616;2022-10-16T05:32:13;1.25;;;0.90;;
37677;SDS011;23517;50.390;8.616;2022-10-16T05:34:41;4.28;;;0.80;;
37677;SDS011;23517;50.390;8.616;2022-10-16T05:37:08;3.08;;;0.63;;
37677;SDS011;23517;50.390;8.616;2022-10-16T05:39:35;6.38;;;3.63;;
37677;SDS011;23517;50.390;8.616;2022-10-16T05:42:03;8.85;;;3.60;;
37677;SDS011;23517;50.390;8.616;2022-10-16T05:44:30;11.18;;;3.63;;
37677;SDS011;23517;50.390;8.616;2022-10-16T05:47:02;7.30;;;4.00;;
37677;SDS011;23517;50.390;8.616;2022-10-16T05:49:29;5.15;;;3.10;;
37677;SDS011;23517;50.390;8.616;2022-10-16T05:51:56;12.00;;;6.55;;
37677;SDS011;23517;50.390;8.616;2022-10-16T05:54:23;8.85;;;5.78;;
37677;SDS011;23517;50.390;8.616;2022-10-16T05:56:50;5.53;;;4.00;;
37677;SDS011;23517;50.390;8.616;2022-10-16T05:59:16;3.22;;;1.98;;
37677;SDS011;23517;50.390;8.616;2022-10-16T06:01:43;2.25;;;1.20;;
37677;SDS011;23517;50.390;8.616;2022-10-16T06:04:10;1.13;;;1.00;;
37677;SDS011;23517;50.390;8.616;2022-10-16T06:06:41;3.85;;;1.27;;
37677;SDS011;23517;50.390;8.616;2022-10-16T06:09:08;5.05;;;1.95;;
37677;SDS011;23517;50.390;8.616;2022-10-16T06:11:36;10.60;;;2.75;;
37677;SDS011;23517;50.390;8.616;2022-10-16T06:14:03;3.42;;;1.20;;
37677;SDS011;23517;50.390;8.616;2022-10-16T06:16:33;3.95;;;1.48;;
37677;SDS011;23517;50.390;8.616;2022-10-16T06:19:01;2.85;;;1.33;;
37677;SDS011;23517;50.390;8.616;2022-10-16T06:21:32;2.67;;;0.90;;
37677;SDS011;23517;50.390;8.616;2022-10-16T06:23:58;4.85;;;1.08;;
37677;SDS011;23517;50.390;8.616;2022-10-16T06:26:26;4.90;;;1.40;;
37677;SDS011;23517;50.390;8.616;2022-10-16T06:28:55;3.45;;;1.05;;
37677;SDS011;23517;50.390;8.616;2022-10-16T06:31:24;7.43;;;1.27;;
37677;SDS011;23517;50.390;8.616;2022-10-16T06:33:56;3.00;;;1.35;;
37677;SDS011;23517;50.390;8.616;2022-10-16T06:36:24;3.40;;;1.30;;
37677;SDS011;23517;50.390;8.616;2022-10-16T06:38:51;4.82;;;1.42;;
37677;SDS011;23517;50.390;8.616;2022-10-16T06:41:19;9.23;;;1.48;;
37677;SDS011;23517;50.390;8.616;2022-10-16T06:43:48;1.38;;;1.10;;
37677;SDS011;23517;50.390;8.616;2022-10-16T06:46:15;4.90;;;1.00;;
37677;SDS011;23517;50.390;8.616;2022-10-16T06:48:45;2.25;;;1.15;;
37677;SDS011;23517;50.390;8.616;2022-10-16T06:51:16;1.08;;;0.88;;
37677;SDS011;23517;50.390;8.616;2022-10-16T06:53:46;3.00;;;1.08;;
37677;SDS011;23517;50.390;8.616;2022-10-16T06:56:33;8.18;;;1.10;;
37677;SDS011;23517;50.390;8.616;2022-10-16T06:59:00;9.60;;;1.20;;
37677;SDS011;23517;50.390;8.616;2022-10-16T07:01:28;4.55;;;1.15;;
37677;SDS011;23517;50.390;8.616;2022-10-16T07:03:55;4.32;;;1.20;;
37677;SDS011;23517;50.390;8.616;2022-10-16T07:06:23;10.60;;;2.47;;
37677;SDS011;23517;50.390;8.616;2022-10-16T07:08:51;2.78;;;2.53;;
37677;SDS011;23517;50.390;8.616;2022-10-16T07:11:20;7.43;;;2.85;;
37677;SDS011;23517;50.390;8.616;2022-10-16T07:13:49;3.80;;;2.58;;
37677;SDS011;23517;50.390;8.616;2022-10-16T07:16:25;3.22;;;2.00;;
37677;SDS011;23517;50.390;8.616;2022-10-16T07:18:54;4.75;;;2.75;;
37677;SDS011;23517;50.390;8.616;2022-10-16T07:21:27;6.43;;;2.55;;
37677;SDS011;23517;50.390;8.616;2022-10-16T07:23:57;4.28;;;2.50;;
37677;SDS011;23517;50.390;8.616;2022-10-16T07:26:27;5.25;;;2.50;;
37677;SDS011;23517;50.390;8.616;2022-10-16T07:28:57;3.80;;;1.95;;
37677;SDS011;23517;50.390;8.616;2022-10-16T07:31:24;3.88;;;2.30;;
37677;SDS011;23517;50.390;8.616;2022-10-16T07:33:58;4.43;;;2.75;;
37677;SDS011;23517;50.390;8.616;2022-10-16T07:36:26;6.38;;;4.07;;
37677;SDS011;23517;50.390;8.616;2022-10-16T07:38:53;2.65;;;2.45;;
37677;SDS011;23517;50.390;8.616;2022-10-16T07:41:25;6.72;;;3.40;;
37677;SDS011;23517;50.390;8.616;2022-10-16T07:43:52;7.55;;;4.38;;
37677;SDS011;23517;50.390;8.616;2022-10-16T07:46:20;7.50;;;4.95;;
37677;SDS011;23517;50.390;8.616;2022-10-16T07:48:48;5.45;;;3.63;;
37677;SDS011;23517;50.390;8.616;2022-10-16T07:51:16;5.78;;;3.28;;
37677;SDS011;23517;50.390;8.616;2022-10-16T07:53:46;5.80;;;2.97;;
37677;SDS011;23517;50.390;8.616;2022-10-16T07:56:13;5.35;;;3.00;;
37677;SDS011;23517;50.390;8.616;2022-10-16T07:58:40;4.13;;;2.35;;
37677;SDS011;23517;50.390;8.616;2022-10-16T08:01:08;3.13;;;2.50;;
37677;SDS011;23517;50.390;8.616;2022-10-16T08:03:41;8.82;;;4.63;;
37677;SDS011;23517;50.390;8.616;2022-10-16T08:06:09;7.53;;;5.55;;
37677;SDS011;23517;50.390;8.616;2022-10-16T08:08:36;8.57;;;5.63;;
37677;SDS011;23517;50.390;8.616;2022-10-16T08:11:03;10.85;;;4.95;;
37677;SDS011;23517;50.390;8.616;2022-10-16T08:13:30;9.52;;;5.90;;
37677;SDS011;23517;50.390;8.616;2022-10-16T08:15:57;8.80;;;5.75;;
37677;SDS011;23517;50.390;8.616;2022-10-16T08:18:24;9.77;;;5.32;;
37677;SDS011;23517;50.390;8.616;2022-10-16T08:20:57;19.13;;;12.63;;
37677;SDS011;23517;50.390;8.616;2022-10-16T08:23:26;18.27;;;12.25;;
37677;SDS011;23517;50.390;8.616;2022-10-16T08:25:54;17.13;;;11.65;;
37677;SDS011;23517;50.390;8.616;2022-10-16T08:28:27;15.27;;;8.95;;
37677;SDS011;23517;50.390;8.616;2022-10-16T08:30:54;8.70;;;6.78;;
37677;SDS011;23517;50.390;8.616;2022-10-16T08:33:22;6.82;;;5.18;;
37677;SDS011;23517;50.390;8.616;2022-10-16T08:35:52;15.40;;;8.43;;
37677;SDS011;23517;50.390;8.616;2022-10-16T08:38:19;8.88;;;5.25;;
37677;SDS011;23517;50.390;8.616;2022-10-16T08:40:46;8.82;;;3.38;;
37677;SDS011;23517;50.390;8.616;2022-10-16T08:48:55;1.70;;;1.60;;
37677;SDS011;23517;50.390;8.616;2022-10-16T08:51:29;3.67;;;2.17;;
37677;SDS011;23517;50.390;8.616;2022-10-16T08:54:03;5.03;;;2.47;;
37677;SDS011;23517;50.390;8.616;2022-10-16T08:56:45;3.28;;;2.30;;
37677;SDS011;23517;50.390;8.616;2022-10-16T08:59:12;2.05;;;1.70;;
37677;SDS011;23517;50.390;8.616;2022-10-16T09:01:45;2.33;;;1.90;;
37677;SDS011;23517;50.390;8.616;2022-10-16T09:04:26;3.83;;;2.40;;
37677;SDS011;23517;50.390;8.616;2022-10-16T09:13:04;5.38;;;2.83;;
37677;SDS011;23517;50.390;8.616;2022-10-16T09:16:01;6.72;;;2.72;;
37677;SDS011;23517;50.390;8.616;2022-10-16T09:18:51;4.95;;;1.75;;
37677;SDS011;23517;50.390;8.616;2022-10-16T09:21:33;3.85;;;1.20;;
37677;SDS011;23517;50.390;8.616;2022-10-16T09:24:12;1.13;;;1.10;;
37677;SDS011;23517;50.390;8.616;2022-10-16T09:26:54;1.50;;;1.20;;
37677;SDS011;23517;50.390;8.616;2022-10-16T09:29:21;27.63;;;16.35;;
37677;SDS011;23517;50.390;8.616;2022-10-16T09:31:49;9.35;;;5.30;;
37677;SDS011;23517;50.390;8.616;2022-10-16T09:34:29;7.90;;;5.18;;
37677;SDS011;23517;50.390;8.616;2022-10-16T09:37:01;3.67;;;2.05;;
37677;SDS011;23517;50.390;8.616;2022-10-16T09:39:50;2.42;;;2.10;;
37677;SDS011;23517;50.390;8.616;2022-10-16T09:42:27;5.10;;;3.38;;
37677;SDS011;23517;50.390;8.616;2022-10-16T09:44:59;13.65;;;7.28;;
37677;SDS011;23517;50.390;8.616;2022-10-16T09:47:26;4.60;;;3.33;;
37677;SDS011;23517;50.390;8.616;2022-10-16T09:49:56;13.05;;;7.43;;
37677;SDS011;23517;50.390;8.616;2022-10-16T09:52:32;16.23;;;9.35;;
37677;SDS011;23517;50.390;8.616;2022-10-16T09:55:00;15.48;;;8.07;;
37677;SDS011;23517;50.390;8.616;2022-10-16T09:57:48;7.30;;;3.67;;
37677;SDS011;23517;50.390;8.616;2022-10-16T10:00:20;1.58;;;1.45;;
37677;SDS011;23517;50.390;8.616;2022-10-16T10:02:48;3.58;;;1.25;;
37677;SDS011;23517;50.390;8.616;2022-10-16T10:05:22;1.55;;;1.33;;
37677;SDS011;23517;50.390;8.616;2022-10-16T10:07:56;15.43;;;7.18;;
37677;SDS011;23517;50.390;8.616;2022-10-16T10:10:29;7.57;;;3.92;;
37677;SDS011;23517;50.390;8.616;2022-10-16T10:12:59;2.13;;;1.70;;
37677;SDS011;23517;50.390;8.616;2022-10-16T10:15:26;3.25;;;2.13;;
37677;SDS011;23517;50.390;8.616;2022-10-16T10:17:59;5.15;;;2.67;;
37677;SDS011;23517;50.390;8.616;2022-10-16T10:20:30;8.63;;;4.10;;
37677;SDS011;23517;50.390;8.616;2022-10-16T10:23:00;0.90;;;0.90;;
37677;SDS011;23517;50.390;8.616;2022-10-16T10:25:50;1.27;;;1.02;;
37677;SDS011;23517;50.390;8.616;2022-10-16T10:28:27;2.85;;;0.90;;
37677;SDS011;23517;50.390;8.616;2022-10-16T10:40:02;2.20;;;0.60;;
37677;SDS011;23517;50.390;8.616;2022-10-16T10:46:00;1.02;;;0.70;;
37677;SDS011;23517;50.390;8.616;2022-10-16T10:48:47;2.40;;;1.70;;
37677;SDS011;23517;50.390;8.616;2022-10-16T10:51:44;0.68;;;0.52;;
37677;SDS011;23517;50.390;8.616;2022-10-16T10:57:38;1.13;;;0.52;;
37677;SDS011;23517;50.390;8.616;2022-10-16T11:03:35;0.25;;;0.25;;
37677;SDS011;23517;50.390;8.616;2022-10-16T11:06:34;1.10;;;0.50;;
37677;SDS011;23517;50.390;8.616;2022-10-16T11:09:15;0.55;;;0.55;;
37677;SDS011;23517;50.390;8.616;2022-10-16T11:11:54;0.88;;;0.52;;
37677;SDS011;23517;50.390;8.616;2022-10-16T11:14:43;2.10;;;0.47;;
37677;SDS011;23517;50.390;8.616;2022-10-16T11:17:38;0.38;;;0.30;;
37677;SDS011;23517;50.390;8.616;2022-10-16T11:20:21;0.60;;;0.60;;
37677;SDS011;23517;50.390;8.616;2022-10-16T11:23:05;0.60;;;0.50;;
37677;SDS011;23517;50.390;8.616;2022-10-16T11:25:42;3.33;;;1.10;;
37677;SDS011;23517;50.390;8.616;2022-10-16T11:28:12;1.15;;;0.63;;
37677;SDS011;23517;50.390;8.616;2022-10-16T11:33:39;0.45;;;0.45;;
37677;SDS011;23517;50.390;8.616;2022-10-16T11:36:22;0.73;;;0.47;;
37677;SDS011;23517;50.390;8.616;2022-10-16T11:39:16;0.70;;;0.60;;
37677;SDS011;23517;50.390;8.616;2022-10-16T11:44:57;1.27;;;0.60;;
37677;SDS011;23517;50.390;8.616;2022-10-16T11:47:54;0.73;;;0.73;;
37677;SDS011;23517;50.390;8.616;2022-10-16T11:55:52;3.28;;;1.77;;
37677;SDS011;23517;50.390;8.616;2022-10-16T11:58:29;0.80;;;0.80;;
37677;SDS011;23517;50.390;8.616;2022-10-16T12:09:26;6.25;;;3.53;;
37677;SDS011;23517;50.390;8.616;2022-10-16T12:11:56;4.38;;;2.17;;
37677;SDS011;23517;50.390;8.616;2022-10-16T12:17:27;1.50;;;0.60;;
37677;SDS011;23517;50.390;8.616;2022-10-16T12:22:41;1.23;;;0.55;;
37677;SDS011;23517;50.390;8.616;2022-10-16T12:25:34;0.55;;;0.55;;
37677;SDS011;23517;50.390;8.616;2022-10-16T12:28:20;3.17;;;2.35;;
37677;SDS011;23517;50.390;8.616;2022-10-16T12:30:52;4.57;;;1.48;;
37677;SDS011;23517;50.390;8.616;2022-10-16T12:33:26;2.92;;;1.80;;
37677;SDS011;23517;50.390;8.616;2022-10-16T12:38:52;5.65;;;4.55;;
37677;SDS011;23517;50.390;8.616;2022-10-16T12:41:38;4.95;;;2.85;;
37677;SDS011;23517;50.390;8.616;2022-10-16T12:44:20;2.45;;;0.82;;
37677;SDS011;23517;50.390;8.616;2022-10-16T12:46:52;0.80;;;0.60;;
37677;SDS011;23517;50.390;8.616;2022-10-16T12:49:23;1.58;;;0.90;;
37677;SDS011;23517;50.390;8.616;2022-10-16T12:52:00;2.17;;;0.80;;
37677;SDS011;23517;50.390;8.616;2022-10-16T12:57:09;5.88;;;1.10;;
37677;SDS011;23517;50.390;8.616;2022-10-16T13:00:16;3.20;;;1.67;;
37677;SDS011;23517;50.390;8.616;2022-10-16T13:03:25;6.97;;;1.70;;
37677;SDS011;23517;50.390;8.616;2022-10-16T13:09:27;2.42;;;1.25;;
37677;SDS011;23517;50.390;8.616;2022-10-16T13:12:27;4.53;;;1.75;;
37677;SDS011;23517;50.390;8.616;2022-10-16T13:15:22;3.58;;;1.73;;
37677;SDS011;23517;50.390;8.616;2022-10-16T13:18:02;2.67;;;1.50;;
37677;SDS011;23517;50.390;8.616;2022-10-16T13:23:26;4.40;;;1.27;;
37677;SDS011;23517;50.390;8.616;2022-10-16T13:29:09;2.33;;;1.27;;
37677;SDS011;23517;50.390;8.616;2022-10-16T13:31:37;1.88;;;1.02;;
37677;SDS011;23517;50.390;8.616;2022-10-16T13:34:05;2.90;;;0.90;;
37677;SDS011;23517;50.390;8.616;2022-10-16T13:36:45;4.03;;;1.10;;
37677;SDS011;23517;50.390;8.616;2022-10-16T13:39:23;2.97;;;0.93;;
37677;SDS011;23517;50.390;8.616;2022-10-16T13:42:05;2.25;;;1.08;;
37677;SDS011;23517;50.390;8.616;2022-10-16T13:44:47;8.15;;;2.72;;
37677;SDS011;23517;50.390;8.616;2022-10-16T13:47:18;1.73;;;1.30;;
37677;SDS011;23517;50.390;8.616;2022-10-16T13:50:03;2.35;;;1.27;;
37677;SDS011;23517;50.390;8.616;2022-10-16T13:52:31;3.53;;;1.30;;
37677;SDS011;23517;50.390;8.616;2022-10-16T13:55:02;4.10;;;1.60;;
37677;SDS011;23517;50.390;8.616;2022-10-16T13:57:30;3.38;;;1.73;;
37677;SDS011;23517;50.390;8.616;2022-10-16T13:59:56;18.42;;;2.33;;
37677;SDS011;23517;50.390;8.616;2022-10-16T14:02:27;5.95;;;2.63;;
37677;SDS011;23517;50.390;8.616;2022-10-16T14:05:04;5.57;;;2.05;;
37677;SDS011;23517;50.390;8.616;2022-10-16T14:07:36;4.07;;;1.80;;
37677;SDS011;23517;50.390;8.616;2022-10-16T14:10:04;4.93;;;1.80;;
37677;SDS011;23517;50.390;8.616;2022-10-16T14:12:33;4.25;;;1.77;;
37677;SDS011;23517;50.390;8.616;2022-10-16T14:15:01;1.00;;;0.90;;
37677;SDS011;23517;50.390;8.616;2022-10-16T14:17:28;0.85;;;0.60;;
37677;SDS011;23517;50.390;8.616;2022-10-16T14:20:00;2.13;;;0.82;;
37677;SDS011;23517;50.390;8.616;2022-10-16T14:22:33;2.50;;;0.75;;
37677;SDS011;23517;50.390;8.616;2022-10-16T14:28:14;1.33;;;0.80;;
37677;SDS011;23517;50.390;8.616;2022-10-16T14:30:54;1.63;;;0.80;;
37677;SDS011;23517;50.390;8.616;2022-10-16T14:33:30;0.93;;;0.85;;
37677;SDS011;23517;50.390;8.616;2022-10-16T14:38:32;3.88;;;1.13;;
37677;SDS011;23517;50.390;8.616;2022-10-16T14:40:59;1.38;;;0.75;;
37677;SDS011;23517;50.390;8.616;2022-10-16T14:46:14;3.63;;;0.90;;
37677;SDS011;23517;50.390;8.616;2022-10-16T14:48:50;1.80;;;1.08;;
37677;SDS011;23517;50.390;8.616;2022-10-16T14:51:20;3.55;;;0.80;;
37677;SDS011;23517;50.390;8.616;2022-10-16T14:53:49;1.92;;;1.02;;
37677;SDS011;23517;50.390;8.616;2022-10-16T14:56:17;5.50;;;1.55;;
37677;SDS011;23517;50.390;8.616;2022-10-16T14:58:47;4.63;;;1.60;;
37677;SDS011;23517;50.390;8.616;2022-10-16T15:01:17;2.42;;;1.45;;
37677;SDS011;23517;50.390;8.616;2022-10-16T15:03:44;3.33;;;1.35;;
37677;SDS011;23517;50.390;8.616;2022-10-16T15:06:11;5.70;;;1.98;;
37677;SDS011;23517;50.390;8.616;2022-10-16T15:08:42;5.03;;;2.10;;
37677;SDS011;23517;50.390;8.616;2022-10-16T15:11:13;5.55;;;2.20;;
37677;SDS011;23517;50.390;8.616;2022-10-16T15:13:43;6.95;;;2.72;;
37677;SDS011;23517;50.390;8.616;2022-10-16T15:16:11;5.50;;;2.55;;
37677;SDS011;23517;50.390;8.616;2022-10-16T15:18:40;3.42;;;1.90;;
37677;SDS011;23517;50.390;8.616;2022-10-16T15:21:08;2.80;;;1.60;;
37677;SDS011;23517;50.390;8.616;2022-10-16T15:23:48;4.70;;;1.40;;
37677;SDS011;23517;50.390;8.616;2022-10-16T15:26:15;2.15;;;1.67;;
37677;SDS011;23517;50.390;8.616;2022-10-16T15:28:42;5.63;;;1.17;;
37677;SDS011;23517;50.390;8.616;2022-10-16T15:31:09;2.35;;;1.42;;
37677;SDS011;23517;50.390;8.616;2022-10-16T15:33:35;5.40;;;1.75;;
37677;SDS011;23517;50.390;8.616;2022-10-16T15:36:05;1.75;;;1.38;;
37677;SDS011;23517;50.390;8.616;2022-10-16T15:38:32;1.30;;;1.10;;
37677;SDS011;23517;50.390;8.616;2022-10-16T15:40:59;3.88;;;1.10;;
37677;SDS011;23517;50.390;8.616;2022-10-16T15:43:26;2.17;;;1.15;;
37677;SDS011;23517;50.390;8.616;2022-10-16T15:48:29;1.40;;;1.10;;
37677;SDS011;23517;50.390;8.616;2022-10-16T15:50:56;3.28;;;1.17;;
37677;SDS011;23517;50.390;8.616;2022-10-16T15:53:23;2.25;;;1.48;;
37677;SDS011;23517;50.390;8.616;2022-10-16T15:55:49;3.13;;;1.60;;
37677;SDS011;23517;50.390;8.616;2022-10-16T15:58:16;20.67;;;9.05;;
37677;SDS011;23517;50.390;8.616;2022-10-16T16:00:43;45.40;;;25.75;;
37677;SDS011;23517;50.390;8.616;2022-10-16T16:03:10;21.33;;;12.60;;
37677;SDS011;23517;50.390;8.616;2022-10-16T16:05:39;23.05;;;14.15;;
37677;SDS011;23517;50.390;8.616;2022-10-16T16:08:11;34.85;;;21.27;;
37677;SDS011;23517;50.390;8.616;2022-10-16T16:10:38;25.52;;;14.35;;
37677;SDS011;23517;50.390;8.616;2022-10-16T16:13:05;26.23;;;13.73;;
37677;SDS011;23517;50.390;8.616;2022-10-16T16:15:31;12.07;;;7.53;;
37677;SDS011;23517;50.390;8.616;2022-10-16T16:17:58;11.60;;;5.63;;
37677;SDS011;23517;50.390;8.616;2022-10-16T16:20:25;12.77;;;7.65;;
37677;SDS011;23517;50.390;8.616;2022-10-16T16:22:51;10.02;;;5.22;;
37677;SDS011;23517;50.390;8.616;2022-10-16T16:25:18;7.82;;;4.78;;
37677;SDS011;23517;50.390;8.616;2022-10-16T16:27:44;5.78;;;3.40;;
37677;SDS011;23517;50.390;8.616;2022-10-16T16:30:11;5.70;;;3.80;;
37677;SDS011;23517;50.390;8.616;2022-10-16T16:32:45;5.32;;;3.42;;
37677;SDS011;23517;50.390;8.616;2022-10-16T16:35:12;4.45;;;2.83;;
37677;SDS011;23517;50.390;8.616;2022-10-16T16:37:38;3.70;;;2.53;;
37677;SDS011;23517;50.390;8.616;2022-10-16T16:40:05;3.63;;;2.30;;
37677;SDS011;23517;50.390;8.616;2022-10-16T16:42:32;5.93;;;2.67;;
37677;SDS011;23517;50.390;8.616;2022-10-16T16:44:58;9.07;;;3.97;;
37677;SDS011;23517;50.390;8.616;2022-10-16T16:47:25;10.55;;;3.83;;
37677;SDS011;23517;50.390;8.616;2022-10-16T16:49:52;6.30;;;2.63;;